createdAt,value
2023-02-02T00:02:20.736Z,74.10
2023-02-02T00:07:23.768Z,73.99
2023-02-02T00:12:27.440Z,73.99
2023-02-02T00:17:30.505Z,74.02
2023-02-02T00:22:34.199Z,73.99
2023-02-02T00:27:37.151Z,74.34
2023-02-02T00:32:40.851Z,74.08
2023-02-02T00:37:43.891Z,74.06
2023-02-02T00:42:50.528Z,74.06
2023-02-02T00:47:53.505Z,74.25
2023-02-02T00:52:58.156Z,74.49
2023-02-02T00:58:01.237Z,74.28
2023-02-02T01:03:04.718Z,74.23
2023-02-02T01:08:08.574Z,74.30
2023-02-02T01:19:27.282Z,74.39
2023-02-02T01:24:30.360Z,74.41
2023-02-02T01:29:33.413Z,74.53
2023-02-02T01:34:36.334Z,74.71
2023-02-02T01:39:39.468Z,74.49
2023-02-02T01:45:18.717Z,74.52
2023-02-02T01:50:26.797Z,74.56
2023-02-02T01:55:32.591Z,74.71
2023-02-02T02:00:36.387Z,74.40
2023-02-02T02:05:49.620Z,74.35
2023-02-02T02:10:52.807Z,74.47
2023-02-02T02:16:19.440Z,74.83
2023-02-02T02:21:52.395Z,74.71
2023-02-02T02:27:34.333Z,74.60
2023-02-02T02:33:04.070Z,74.69
2023-02-02T02:38:26.171Z,74.88
2023-02-02T02:43:40.432Z,74.83
2023-02-02T02:48:46.024Z,75.01
2023-02-02T02:53:48.948Z,75.26
2023-02-02T02:59:03.701Z,75.66
2023-02-02T03:04:12.469Z,75.59
2023-02-02T03:09:23.263Z,75.66
2023-02-02T03:14:26.236Z,75.95
2023-02-02T03:19:29.095Z,76.26
2023-02-02T03:24:31.916Z,75.86
2023-02-02T03:29:34.750Z,76.11
2023-02-02T03:34:37.562Z,76.05
2023-02-02T03:39:40.426Z,76.18
2023-02-02T03:44:43.215Z,76.11
2023-02-02T03:49:46.073Z,75.90
2023-02-02T03:54:48.916Z,75.96
2023-02-02T03:59:51.767Z,75.72
2023-02-02T04:04:54.594Z,75.95
2023-02-02T04:09:57.401Z,75.73
2023-02-02T04:15:00.229Z,75.79
2023-02-02T04:20:05.655Z,75.90
2023-02-02T04:25:08.905Z,75.85
2023-02-02T04:30:12.205Z,75.56
2023-02-02T04:35:15.189Z,75.50
2023-02-02T04:40:18.500Z,75.58
2023-02-02T04:45:21.369Z,75.41
2023-02-02T04:50:24.720Z,75.46
2023-02-02T04:55:27.586Z,75.12
2023-02-02T05:00:30.571Z,75.24
2023-02-02T05:05:33.518Z,75.20
2023-02-02T05:10:39.727Z,75.13
2023-02-02T05:15:43.114Z,75.13
2023-02-02T05:20:46.057Z,75.23
2023-02-02T05:25:53.853Z,74.88
2023-02-02T05:30:57.581Z,74.90
2023-02-02T05:36:00.616Z,74.89
2023-02-02T05:41:04.022Z,75.13
2023-02-02T05:46:07.090Z,75.31
2023-02-02T05:51:28.144Z,75.37
2023-02-02T05:56:31.042Z,75.30
2023-02-02T06:01:35.619Z,75.12
2023-02-02T06:06:39.159Z,75.22
2023-02-02T06:11:44.709Z,75.17
2023-02-02T06:16:47.551Z,75.13
2023-02-02T06:21:50.513Z,74.75
2023-02-02T06:26:53.360Z,74.57
2023-02-02T06:31:56.342Z,74.31
2023-02-02T06:36:59.198Z,74.51
2023-02-02T06:42:11.884Z,74.50
2023-02-02T06:47:23.675Z,74.39
2023-02-02T06:52:27.062Z,74.05
2023-02-02T06:57:29.995Z,73.91
2023-02-02T07:02:32.901Z,73.85
2023-02-02T07:07:35.983Z,74.03
2023-02-02T07:12:38.993Z,74.13
2023-02-02T07:17:41.855Z,74.20
2023-02-02T07:22:44.646Z,74.04
2023-02-02T07:27:47.990Z,74.10
2023-02-02T07:32:51.221Z,74.07
2023-02-02T07:37:56.073Z,74.29
2023-02-02T07:43:01.029Z,74.24
2023-02-02T07:48:04.067Z,74.18
2023-02-02T07:53:06.944Z,74.23
2023-02-02T07:58:11.519Z,74.25
2023-02-02T08:03:14.395Z,74.49
2023-02-02T08:08:17.247Z,74.63
2023-02-02T08:13:20.924Z,74.65
2023-02-02T08:18:23.798Z,74.79
2023-02-02T08:23:27.963Z,75.10
2023-02-02T08:28:30.745Z,75.23
2023-02-02T08:33:33.661Z,75.58
2023-02-02T08:38:36.484Z,75.61
2023-02-02T08:43:40.278Z,75.69
2023-02-02T08:48:43.859Z,75.91
2023-02-02T08:53:47.603Z,75.58
2023-02-02T08:58:54.581Z,75.74
2023-02-02T09:04:01.563Z,75.86
2023-02-02T09:09:09.008Z,75.27
2023-02-02T09:14:14.115Z,75.35
2023-02-02T09:19:17.295Z,75.56
2023-02-02T09:24:20.172Z,75.85
2023-02-02T09:29:23.039Z,75.24
2023-02-02T09:34:25.869Z,75.83
2023-02-02T09:39:28.819Z,75.38
2023-02-02T09:44:37.764Z,75.49
2023-02-02T09:50:18.620Z,75.51
2023-02-02T09:55:27.470Z,75.74
2023-02-02T10:00:51.278Z,75.42
2023-02-02T10:06:11.202Z,75.58
2023-02-02T10:11:46.627Z,75.30
2023-02-02T10:16:54.661Z,75.03
2023-02-02T10:22:27.726Z,75.13
2023-02-02T10:27:41.634Z,75.60
2023-02-02T10:33:10.288Z,75.83
2023-02-02T10:38:18.899Z,75.84
2023-02-02T10:43:46.513Z,75.95
2023-02-02T10:48:50.728Z,76.43
2023-02-02T10:53:57.366Z,76.59
2023-02-02T10:59:05.883Z,76.62
2023-02-02T11:04:29.502Z,76.58
2023-02-02T11:09:41.059Z,76.89
2023-02-02T11:14:52.440Z,76.77
2023-02-02T11:19:56.214Z,76.83
2023-02-02T11:25:08.334Z,76.68
2023-02-02T11:30:23.483Z,76.63
2023-02-02T11:35:29.873Z,76.79
2023-02-02T11:40:46.328Z,77.29
2023-02-02T11:46:02.853Z,77.48
2023-02-02T11:51:08.134Z,77.56
2023-02-02T11:56:23.964Z,77.42
2023-02-02T12:01:32.892Z,77.22
2023-02-02T12:06:38.233Z,77.40
2023-02-02T12:12:02.702Z,77.31
2023-02-02T12:17:50.241Z,77.42
2023-02-02T12:23:50.571Z,77.48
2023-02-02T12:29:11.653Z,77.26
2023-02-02T12:34:34.142Z,77.53
2023-02-02T12:40:03.180Z,77.47
2023-02-02T12:45:24.507Z,77.77
2023-02-02T12:50:39.568Z,77.96
2023-02-02T12:55:51.323Z,77.95
2023-02-02T13:01:25.361Z,78.18
2023-02-02T13:07:11.691Z,78.29
2023-02-02T13:12:18.743Z,78.39
2023-02-02T13:17:30.498Z,78.50
2023-02-02T13:22:44.554Z,78.44
2023-02-02T13:27:49.763Z,78.54
2023-02-02T13:32:57.240Z,78.51
2023-02-02T13:38:26.905Z,78.53
2023-02-02T13:44:06.720Z,78.71
2023-02-02T13:49:15.136Z,78.59
2023-02-02T13:54:44.890Z,78.18
2023-02-02T13:59:53.689Z,77.95
2023-02-02T14:04:59.946Z,78.26
2023-02-02T14:10:04.460Z,78.56
2023-02-02T14:15:10.038Z,79.16
2023-02-02T14:20:43.278Z,78.63
2023-02-02T14:25:46.124Z,77.97
2023-02-02T14:31:30.008Z,77.85
2023-02-02T14:36:37.089Z,76.75
2023-02-02T14:42:39.413Z,75.98
2023-02-02T14:47:45.205Z,75.33
2023-02-02T14:53:03.993Z,75.53
2023-02-02T14:58:07.686Z,75.68
2023-02-02T15:03:46.197Z,76.22
2023-02-02T15:09:27.312Z,76.13
2023-02-02T15:14:35.933Z,76.08
2023-02-02T15:19:45.185Z,75.98
2023-02-02T15:24:49.504Z,75.82
2023-02-02T15:30:02.935Z,75.62
2023-02-02T15:35:12.138Z,75.53
2023-02-02T15:40:20.600Z,75.52
2023-02-02T15:45:55.339Z,75.39
2023-02-02T15:51:05.108Z,75.55
2023-02-02T15:56:23.202Z,75.35
2023-02-02T16:01:30.458Z,75.38
2023-02-02T16:06:34.828Z,74.83
2023-02-02T16:11:42.197Z,74.66
2023-02-02T16:16:47.505Z,74.71
2023-02-02T16:22:04.587Z,74.86
2023-02-02T16:27:13.503Z,74.91
2023-02-02T16:32:40.275Z,74.75
2023-02-02T16:37:43.114Z,74.86
2023-02-02T16:42:45.957Z,75.02
2023-02-02T16:47:48.827Z,75.20
2023-02-02T16:53:02.939Z,75.51
2023-02-02T16:58:05.805Z,74.76
2023-02-02T17:03:12.397Z,73.90
2023-02-02T17:08:26.795Z,73.45
2023-02-02T17:13:32.634Z,72.99
2023-02-02T17:18:35.568Z,71.76
2023-02-02T17:23:39.361Z,70.92
2023-02-02T17:28:42.400Z,70.75
2023-02-02T17:33:45.284Z,70.70
2023-02-02T17:38:48.139Z,70.11
2023-02-02T17:43:50.929Z,69.96
2023-02-02T17:48:53.849Z,70.02
2023-02-02T17:53:59.953Z,70.04
2023-02-02T17:59:02.789Z,70.93
2023-02-02T18:04:06.246Z,70.63
2023-02-02T18:09:09.873Z,70.60
2023-02-02T18:14:13.163Z,70.95
2023-02-02T18:19:16.042Z,70.82
2023-02-02T18:24:18.822Z,70.85
2023-02-02T18:29:21.683Z,70.80
2023-02-02T18:34:25.013Z,71.10
2023-02-02T18:39:27.892Z,71.43
2023-02-02T18:44:31.713Z,72.05
2023-02-02T18:49:34.526Z,72.24
2023-02-02T18:54:37.370Z,72.71
2023-02-02T18:59:41.335Z,72.79
2023-02-02T19:05:03.622Z,73.49
2023-02-02T19:10:06.629Z,74.34
2023-02-02T19:15:13.294Z,74.83
2023-02-02T19:20:30.805Z,75.72
2023-02-02T19:25:33.790Z,76.08
2023-02-02T19:30:37.404Z,75.96
2023-02-02T19:35:40.827Z,75.84
2023-02-02T19:40:44.590Z,75.89
2023-02-02T19:45:47.383Z,75.93
2023-02-02T19:50:50.354Z,75.52
2023-02-02T19:55:53.343Z,75.33
2023-02-02T20:00:58.013Z,75.05
2023-02-02T20:06:04.941Z,75.16
2023-02-02T20:11:32.914Z,75.42
2023-02-02T20:16:44.971Z,75.36
2023-02-02T20:21:53.333Z,75.58
2023-02-02T20:27:03.171Z,75.54
2023-02-02T20:32:17.648Z,74.57
2023-02-02T20:37:31.533Z,74.58
2023-02-02T20:42:34.396Z,74.60
2023-02-02T20:47:37.255Z,74.04
2023-02-02T20:52:40.480Z,73.68
2023-02-02T20:57:43.372Z,73.86
2023-02-02T21:02:46.207Z,73.46
2023-02-02T21:07:54.549Z,73.54
2023-02-02T21:12:57.441Z,73.41
2023-02-02T21:18:00.252Z,73.60
2023-02-02T21:23:03.069Z,73.80
2023-02-02T21:28:06.044Z,73.96
2023-02-02T21:33:08.905Z,73.60
2023-02-02T21:38:15.223Z,73.24
2023-02-02T21:43:18.834Z,73.33
2023-02-02T21:48:29.648Z,73.13
2023-02-02T21:53:33.894Z,72.97
2023-02-02T21:58:40.321Z,72.77
2023-02-02T22:03:46.742Z,72.80
2023-02-02T22:08:51.171Z,72.42
2023-02-02T22:13:55.758Z,72.61
2023-02-02T22:18:58.686Z,72.58
2023-02-02T22:24:01.482Z,72.01
2023-02-02T22:29:17.613Z,70.83
2023-02-02T22:34:20.453Z,71.14
2023-02-02T22:39:23.306Z,71.13
2023-02-02T22:44:26.083Z,71.21
2023-02-02T22:49:28.871Z,71.48
2023-02-02T22:54:31.680Z,72.01
2023-02-02T22:59:35.046Z,72.25
2023-02-02T23:04:37.954Z,72.16
2023-02-02T23:09:40.928Z,72.20
2023-02-02T23:14:43.699Z,71.97
2023-02-02T23:19:46.491Z,72.17
2023-02-02T23:24:49.447Z,72.05
2023-02-02T23:29:52.603Z,72.15
2023-02-02T23:34:55.445Z,71.71
2023-02-02T23:39:58.318Z,71.51
2023-02-02T23:45:01.196Z,71.60
2023-02-02T23:50:07.622Z,71.56
2023-02-02T23:55:10.961Z,71.71
